Time;durP1;ratioP1;P1;durP2;ratioP2;P2;SDS_P1;SDS_P2;PMS_P1;PMS_P2;Temp;Humidity;BMP_temperature;BMP_pressure;BME280_temperature;BME280_humidity;BME280_pressure;Samples;Min_cycle;Max_cycle;Signal;HPM_P1;HPM_P2
2023/08/18 00:01:50;;;;;;;;;;;;;;;24.50;82.60;99590.50;4996344;28;923;-67
2023/08/18 00:04:17;;;;;;;;;;;;;;;24.47;82.67;99583.00;4978674;28;1653;-65
2023/08/18 00:06:44;;;;;;;;;;;;;;;24.46;82.42;99575.81;4996054;28;853;-66
2023/08/18 00:09:10;;;;;;;;;;;;;;;24.44;82.78;99581.19;4996352;28;817;-64
2023/08/18 00:11:37;;;;;;;;;;;;;;;24.37;83.31;99582.44;4996130;28;805;-66
2023/08/18 00:14:03;;;;;;;;;;;;;;;24.31;84.69;99578.78;4995863;28;1890;-66
2023/08/18 00:16:30;;;;;;;;;;;;;;;24.29;85.15;99583.41;4995949;28;860;-67
2023/08/18 00:18:57;;;;;;;;;;;;;;;24.33;85.22;99581.13;4995949;28;1161;-66
2023/08/18 00:21:24;;;;;;;;;;;;;;;24.33;85.34;99578.31;4995704;28;852;-65
2023/08/18 00:23:51;;;;;;;;;;;;;;;24.32;85.43;99571.09;4995770;28;1190;-65
2023/08/18 00:26:17;;;;;;;;;;;;;;;24.33;85.80;99586.78;4995677;28;872;-65
2023/08/18 00:28:44;;;;;;;;;;;;;;;24.35;85.65;99582.16;4995514;28;852;-65
2023/08/18 00:31:11;;;;;;;;;;;;;;;24.34;85.93;99588.31;4995485;28;879;-66
2023/08/18 00:33:38;;;;;;;;;;;;;;;24.33;86.05;99581.13;4995427;28;1890;-66
2023/08/18 00:36:04;;;;;;;;;;;;;;;24.36;85.74;99574.47;4995412;28;825;-65
2023/08/18 00:38:31;;;;;;;;;;;;;;;24.35;85.67;99555.97;4995379;28;841;-66
2023/08/18 00:40:58;;;;;;;;;;;;;;;24.38;84.78;99564.19;4995354;28;895;-65
2023/08/18 00:43:25;;;;;;;;;;;;;;;24.39;84.27;99565.75;4995129;28;1232;-70
2023/08/18 00:45:52;;;;;;;;;;;;;;;24.39;84.00;99565.75;4995279;28;844;-65
2023/08/18 00:48:19;;;;;;;;;;;;;;;24.45;83.13;99569.41;4995250;28;848;-65
2023/08/18 00:50:46;;;;;;;;;;;;;;;24.53;82.32;99560.47;4995376;28;884;-67
2023/08/18 00:53:13;;;;;;;;;;;;;;;24.55;82.00;99557.91;4995022;28;1981;-66
2023/08/18 00:55:40;;;;;;;;;;;;;;;24.59;81.15;99553.56;4995043;28;844;-66
2023/08/18 00:58:08;;;;;;;;;;;;;;;24.63;80.75;99558.97;4977614;28;900;-66
2023/08/18 01:00:35;;;;;;;;;;;;;;;24.60;80.84;99562.81;4995154;28;896;-67
2023/08/18 01:03:04;;;;;;;;;;;;;;;24.63;80.32;99567.47;4995066;28;841;-67
2023/08/18 01:05:31;;;;;;;;;;;;;;;24.68;79.73;99554.63;4995179;28;876;-67
2023/08/18 01:08:00;;;;;;;;;;;;;;;24.62;79.54;99555.38;4994773;28;840;-66
2023/08/18 01:10:28;;;;;;;;;;;;;;;24.55;80.39;99557.91;4994876;28;852;-66
2023/08/18 01:12:58;;;;;;;;;;;;;;;24.44;80.63;99559.34;4994832;28;915;-65
2023/08/18 01:15:33;;;;;;;;;;;;;;;24.30;81.73;99563.13;4994618;28;1883;-66
2023/08/18 01:18:01;;;;;;;;;;;;;;;24.17;82.73;99572.00;4994913;28;805;-68
2023/08/18 01:20:28;;;;;;;;;;;;;;;24.11;83.08;99574.06;4994656;28;825;-65
2023/08/18 01:22:58;;;;;;;;;;;;;;;24.06;82.91;99566.28;4994513;28;861;-66
2023/08/18 01:25:26;;;;;;;;;;;;;;;24.05;82.29;99567.59;4994491;28;840;-65
2023/08/18 01:27:53;;;;;;;;;;;;;;;24.02;81.81;99568.56;4994291;28;927;-68
2023/08/18 01:30:19;;;;;;;;;;;;;;;23.95;81.87;99578.28;4994281;28;860;-65
2023/08/18 01:33:06;;;;;;;;;;;;;;;23.92;81.49;99565.19;4994364;28;828;-66
2023/08/18 01:35:35;;;;;;;;;;;;;;;23.92;81.45;99562.34;4980188;28;1891;-66
2023/08/18 01:38:03;;;;;;;;;;;;;;;23.91;81.05;99572.09;4976923;28;1318;-66
2023/08/18 01:40:30;;;;;;;;;;;;;;;23.83;81.23;99559.69;4994688;28;832;-67
2023/08/18 01:42:58;;;;;;;;;;;;;;;23.81;81.32;99563.03;4994443;28;1177;-65
2023/08/18 01:45:25;;;;;;;;;;;;;;;23.80;81.54;99567.13;4994132;28;1361;-67
2023/08/18 01:47:52;;;;;;;;;;;;;;;23.78;81.66;99561.19;4994374;28;817;-68
2023/08/18 01:50:18;;;;;;;;;;;;;;;23.79;81.73;99564.78;4994331;28;899;-65
2023/08/18 01:52:45;;;;;;;;;;;;;;;23.72;82.14;99562.41;4994419;28;850;-69
2023/08/18 01:55:11;;;;;;;;;;;;;;;23.68;83.00;99559.78;4993972;28;1915;-68
2023/08/18 01:57:39;;;;;;;;;;;;;;;23.62;83.46;99548.47;4993806;28;852;-66
2023/08/18 02:00:06;;;;;;;;;;;;;;;23.60;84.17;99550.25;4993901;28;809;-70
2023/08/18 02:02:32;;;;;;;;;;;;;;;23.59;84.50;99545.88;4994150;28;813;-66
2023/08/18 02:04:59;;;;;;;;;;;;;;;23.58;84.71;99547.94;4993758;28;883;-67
2023/08/18 02:07:25;;;;;;;;;;;;;;;23.50;85.35;99543.22;4993725;28;861;-65
2023/08/18 02:09:52;;;;;;;;;;;;;;;23.42;86.21;99543.66;4993754;28;876;-67
2023/08/18 02:12:19;;;;;;;;;;;;;;;23.38;86.76;99551.56;4993682;28;868;-70
2023/08/18 02:14:46;;;;;;;;;;;;;;;23.38;86.47;99540.28;4993540;28;1886;-65
2023/08/18 02:17:12;;;;;;;;;;;;;;;23.23;87.80;99550.91;4993659;28;821;-67
2023/08/18 02:19:38;;;;;;;;;;;;;;;23.18;88.32;99557.25;4992769;28;849;-66
2023/08/18 02:22:05;;;;;;;;;;;;;;;23.10;89.02;99554.09;4993670;28;884;-67
2023/08/18 02:24:32;;;;;;;;;;;;;;;23.08;89.39;99550.22;4993643;28;805;-67
2023/08/18 02:26:59;;;;;;;;;;;;;;;23.05;89.41;99551.22;4993291;28;916;-68
2023/08/18 02:29:26;;;;;;;;;;;;;;;23.02;89.60;99553.75;4993383;28;833;-68
2023/08/18 02:31:53;;;;;;;;;;;;;;;23.10;88.86;99550.50;4993302;28;821;-68
2023/08/18 02:34:20;;;;;;;;;;;;;;;23.14;88.10;99551.06;4993034;28;1973;-69
2023/08/18 02:49:11;;;;;;;;;;;;;;;23.39;85.26;99570.03;4973767;28;862;-67
2023/08/18 02:51:38;;;;;;;;;;;;;;;23.37;85.54;99578.22;4973567;28;884;-71
2023/08/18 02:54:05;;;;;;;;;;;;;;;23.39;85.51;99574.91;4973567;28;1910;-69
2023/08/18 02:56:32;;;;;;;;;;;;;;;23.40;85.33;99588.50;4973504;28;963;-67
2023/08/18 02:58:59;;;;;;;;;;;;;;;23.31;85.68;99593.53;4973507;28;886;-66
2023/08/18 03:01:25;;;;;;;;;;;;;;;23.19;86.44;99601.09;4973524;28;845;-65
2023/08/18 03:03:52;;;;;;;;;;;;;;;23.10;87.40;99607.66;4973631;28;841;-69
2023/08/18 03:06:19;;;;;;;;;;;;;;;23.05;87.94;99605.53;4973446;28;935;-66
2023/08/18 03:08:46;;;;;;;;;;;;;;;22.98;88.67;99598.25;4973331;28;863;-66
2023/08/18 03:11:12;;;;;;;;;;;;;;;22.93;89.43;99590.50;4973381;28;888;-68
2023/08/18 03:13:39;;;;;;;;;;;;;;;22.93;89.77;99598.19;4973254;28;1953;-66
2023/08/18 03:16:06;;;;;;;;;;;;;;;22.94;89.94;99600.50;4973316;28;856;-68
2023/08/18 03:18:33;;;;;;;;;;;;;;;22.93;90.15;99610.22;4973260;28;859;-66
2023/08/18 03:21:01;;;;;;;;;;;;;;;22.93;90.36;99590.50;4973330;28;836;-65
2023/08/18 03:23:29;;;;;;;;;;;;;;;22.92;90.72;99594.59;4973157;28;844;-70
2023/08/18 03:26:00;;;;;;;;;;;;;;;22.92;90.95;99602.28;4971722;28;1391;-68
2023/08/18 03:28:27;;;;;;;;;;;;;;;22.92;91.19;99600.22;4973191;28;832;-66
2023/08/18 03:30:58;;;;;;;;;;;;;;;22.93;91.06;99607.41;4973008;28;827;-69
2023/08/18 03:33:25;;;;;;;;;;;;;;;22.96;91.13;99597.22;4973282;28;1886;-70
2023/08/18 03:35:52;;;;;;;;;;;;;;;22.96;91.35;99594.41;4973255;28;873;-73
2023/08/18 03:38:18;;;;;;;;;;;;;;;22.97;91.42;99599.53;4973140;28;895;-69
2023/08/18 03:40:45;;;;;;;;;;;;;;;23.01;91.04;99596.53;4973118;28;843;-70
2023/08/18 03:43:11;;;;;;;;;;;;;;;23.03;92.03;99610.91;4973193;28;1278;-71
2023/08/18 03:45:38;;;;;;;;;;;;;;;23.07;91.39;99603.00;4972955;28;971;-71
2023/08/18 03:48:05;;;;;;;;;;;;;;;23.06;91.33;99612.72;4995127;28;1485;-69
2023/08/18 03:50:32;;;;;;;;;;;;;;;23.03;91.14;99611.66;5011930;28;945;-67
2023/08/18 03:53:00;;;;;;;;;;;;;;;23.03;91.31;99611.66;5011808;28;827;-69
2023/08/18 03:55:26;;;;;;;;;;;;;;;23.01;91.66;99617.03;5011749;28;1915;-69
2023/08/18 03:57:53;;;;;;;;;;;;;;;23.02;92.11;99620.59;5011722;28;880;-68
2023/08/18 04:00:20;;;;;;;;;;;;;;;23.08;92.01;99618.63;5012027;28;868;-68
2023/08/18 04:02:47;;;;;;;;;;;;;;;23.14;92.10;99622.31;5011686;28;949;-68
2023/08/18 04:05:14;;;;;;;;;;;;;;;23.21;91.94;99618.28;5011797;28;800;-66
2023/08/18 04:07:45;;;;;;;;;;;;;;;23.34;91.43;99629.19;5011697;28;862;-73
2023/08/18 04:10:11;;;;;;;;;;;;;;;23.46;89.94;99630.88;5011688;28;876;-70
2023/08/18 04:12:38;;;;;;;;;;;;;;;23.54;89.15;99631.22;5011697;28;864;-66
2023/08/18 04:15:05;;;;;;;;;;;;;;;23.49;89.47;99623.47;5011573;28;1953;-68
2023/08/18 04:17:32;;;;;;;;;;;;;;;23.45;90.44;99632.16;5011608;28;907;-68
2023/08/18 04:19:59;;;;;;;;;;;;;;;23.48;91.04;99630.38;4994001;28;1586;-67
2023/08/18 04:25:28;;;;;;;;;;;;;;;23.60;91.47;99632.81;5011249;28;713;-72
2023/08/18 04:27:54;;;;;;;;;;;;;;;23.64;91.57;99635.41;5011519;28;892;-72
2023/08/18 04:30:21;;;;;;;;;;;;;;;23.71;90.83;99640.63;5011540;28;805;-69
2023/08/18 04:32:49;;;;;;;;;;;;;;;23.70;91.67;99641.88;4993983;28;1185;-66
2023/08/18 04:35:15;;;;;;;;;;;;;;;23.78;92.00;99636.63;5011268;28;1951;-66
2023/08/18 04:37:42;;;;;;;;;;;;;;;23.91;91.92;99631.34;5011489;28;868;-69
2023/08/18 04:40:08;;;;;;;;;;;;;;;24.02;90.78;99636.31;5011395;28;813;-67
2023/08/18 04:42:35;;;;;;;;;;;;;;;24.10;89.27;99634.59;5013427;28;962;-67
2023/08/18 04:45:01;;;;;;;;;;;;;;;24.19;89.54;99630.81;5014810;28;870;-69
2023/08/18 04:47:28;;;;;;;;;;;;;;;24.29;88.79;99639.88;5014688;28;1374;-67
2023/08/18 05:02:06;;;;;;;;;;;;;;;24.71;87.25;99644.03;5034331;28;721;-66
2023/08/18 05:04:34;;;;;;;;;;;;;;;24.81;86.77;99651.03;5034473;28;1304;-68
2023/08/18 05:07:00;;;;;;;;;;;;;;;24.86;86.76;99655.97;5034956;28;800;-67
2023/08/18 05:09:28;;;;;;;;;;;;;;;25.01;85.95;99647.31;5034861;28;1226;-66
2023/08/18 05:11:55;;;;;;;;;;;;;;;25.05;85.42;99653.50;5034242;28;1227;-65
2023/08/18 05:14:22;;;;;;;;;;;;;;;25.14;84.93;99661.75;5034251;28;1894;-66
2023/08/18 05:16:48;;;;;;;;;;;;;;;25.16;85.10;99655.59;5034136;28;1247;-65
2023/08/18 05:19:15;;;;;;;;;;;;;;;25.18;85.02;99661.53;5034229;28;828;-67
2023/08/18 05:21:42;;;;;;;;;;;;;;;25.28;84.85;99662.84;5034050;28;820;-69
2023/08/18 05:24:09;;;;;;;;;;;;;;;25.60;83.01;99657.81;5034040;28;1170;-67
2023/08/18 05:26:36;;;;;;;;;;;;;;;25.98;80.47;99666.91;5033973;28;1274;-67
2023/08/18 05:29:03;;;;;;;;;;;;;;;26.29;78.71;99662.31;5033862;28;1267;-68
2023/08/18 05:31:30;;;;;;;;;;;;;;;26.64;76.82;99670.28;5016059;28;1210;-68
2023/08/18 05:33:56;;;;;;;;;;;;;;;26.95;73.95;99670.47;5033725;28;1894;-66
2023/08/18 05:36:22;;;;;;;;;;;;;;;27.31;72.05;99659.28;5033808;28;856;-66
2023/08/18 05:38:49;;;;;;;;;;;;;;;27.78;69.07;99662.13;5033621;28;878;-66
2023/08/18 05:41:16;;;;;;;;;;;;;;;28.56;65.04;99666.47;5033715;28;868;-68
2023/08/18 05:43:42;;;;;;;;;;;;;;;29.17;61.75;99672.03;5033804;28;897;-67
2023/08/18 05:46:09;;;;;;;;;;;;;;;29.45;59.42;99675.31;5033732;28;867;-71
2023/08/18 05:48:36;;;;;;;;;;;;;;;29.57;58.66;99672.31;5033284;28;1281;-68
2023/08/18 05:51:03;;;;;;;;;;;;;;;30.24;56.34;99667.72;5033390;28;824;-69
2023/08/18 05:53:31;;;;;;;;;;;;;;;31.00;53.17;99668.19;5032233;28;1914;-66
2023/08/18 05:55:58;;;;;;;;;;;;;;;31.16;52.17;99657.75;5033344;28;824;-66
2023/08/18 05:58:25;;;;;;;;;;;;;;;30.81;53.12;99656.09;5033258;28;809;-67
2023/08/18 06:00:51;;;;;;;;;;;;;;;30.52;54.45;99662.31;5033221;28;994;-67
2023/08/18 06:03:19;;;;;;;;;;;;;;;30.39;54.70;99665.16;5033167;28;898;-67
2023/08/18 06:05:46;;;;;;;;;;;;;;;30.68;51.42;99662.56;5033171;28;924;-66
2023/08/18 06:08:13;;;;;;;;;;;;;;;31.06;51.29;99663.13;5033048;28;833;-66
2023/08/18 06:10:40;;;;;;;;;;;;;;;31.57;50.07;99672.75;5033294;28;856;-66
2023/08/18 06:13:08;;;;;;;;;;;;;;;31.66;47.57;99672.28;5032892;28;911;-66
2023/08/18 06:15:36;;;;;;;;;;;;;;;31.12;48.66;99675.22;5032975;28;1882;-71
2023/08/18 06:18:03;;;;;;;;;;;;;;;30.69;48.44;99666.94;5032887;28;879;-68
2023/08/18 06:20:30;;;;;;;;;;;;;;;30.44;49.52;99666.34;5033003;28;1307;-67
2023/08/18 06:22:57;;;;;;;;;;;;;;;30.27;49.74;99658.06;5032834;28;868;-66
2023/08/18 06:25:24;;;;;;;;;;;;;;;30.28;48.25;99660.41;5032834;28;891;-66
2023/08/18 06:27:52;;;;;;;;;;;;;;;30.70;47.15;99660.72;5015104;28;1185;-68
2023/08/18 06:30:19;;;;;;;;;;;;;;;30.89;45.69;99669.16;5033716;28;875;-68
2023/08/18 06:32:46;;;;;;;;;;;;;;;30.87;44.54;99653.94;5032778;28;804;-69
2023/08/18 06:35:13;;;;;;;;;;;;;;;31.03;44.79;99663.47;5032757;28;1889;-65
2023/08/18 06:37:40;;;;;;;;;;;;;;;31.45;43.52;99663.66;5032955;28;846;-66
2023/08/18 06:40:07;;;;;;;;;;;;;;;31.70;42.64;99667.00;5032670;28;845;-68
2023/08/18 06:42:34;;;;;;;;;;;;;;;31.92;41.50;99668.56;5032976;28;901;-66
2023/08/18 06:57:49;;;;;;;;;;;;;;;34.05;34.98;99680.44;5026203;28;1337;-67
2023/08/18 07:00:18;;;;;;;;;;;;;;;34.54;33.51;99685.84;5032149;28;836;-66
2023/08/18 07:02:45;;;;;;;;;;;;;;;34.87;33.24;99676.69;5032123;28;860;-67
2023/08/18 07:08:13;;;;;;;;;;;;;;;35.23;32.56;99682.16;5031714;28;718;-65
2023/08/18 07:10:40;;;;;;;;;;;;;;;35.29;32.89;99684.81;5031667;28;821;-66
2023/08/18 07:13:07;;;;;;;;;;;;;;;35.49;31.48;99688.78;5032084;28;853;-67
2023/08/18 07:15:34;;;;;;;;;;;;;;;35.22;32.26;99688.47;5031894;28;1914;-65
2023/08/18 07:18:02;;;;;;;;;;;;;;;35.79;31.42;99696.50;5032018;28;886;-66
2023/08/18 07:20:29;;;;;;;;;;;;;;;36.62;30.00;99684.25;5031845;28;879;-66
2023/08/18 07:22:56;;;;;;;;;;;;;;;36.97;30.21;99694.47;5031877;28;808;-65
2023/08/18 07:25:22;;;;;;;;;;;;;;;37.29;29.96;99687.03;5031829;28;907;-66
2023/08/18 07:27:49;;;;;;;;;;;;;;;36.97;29.67;99697.34;5031787;28;877;-70
2023/08/18 07:30:16;;;;;;;;;;;;;;;36.45;29.22;99690.72;5031847;28;901;-67
2023/08/18 07:32:42;;;;;;;;;;;;;;;36.17;29.49;99689.78;5031697;28;840;-70
2023/08/18 07:35:09;;;;;;;;;;;;;;;34.75;31.03;99705.75;5031773;28;1894;-71
2023/08/18 07:37:36;;;;;;;;;;;;;;;33.90;32.20;99707.75;5031721;28;859;-68
2023/08/18 07:40:09;;;;;;;;;;;;;;;33.27;33.42;99710.16;5031963;28;859;-66
2023/08/18 07:42:37;;;;;;;;;;;;;;;32.93;34.35;99711.81;5031703;28;924;-67
2023/08/18 07:45:04;;;;;;;;;;;;;;;34.10;32.45;99702.44;5031651;28;852;-66
2023/08/18 07:47:31;;;;;;;;;;;;;;;34.83;30.84;99710.75;5031638;28;824;-67
2023/08/18 07:49:58;;;;;;;;;;;;;;;35.80;29.75;99703.78;5031564;28;839;-67
2023/08/18 07:52:24;;;;;;;;;;;;;;;35.60;30.27;99719.94;5031507;28;879;-67
2023/08/18 07:54:51;;;;;;;;;;;;;;;34.96;30.31;99728.53;5031745;28;1961;-67
2023/08/18 07:57:18;;;;;;;;;;;;;;;33.44;32.72;99721.88;5031328;28;1238;-66
2023/08/18 07:59:44;;;;;;;;;;;;;;;32.91;33.56;99723.06;5031567;28;804;-68
2023/08/18 08:02:10;;;;;;;;;;;;;;;32.51;34.87;99714.72;5031552;28;955;-66
2023/08/18 08:04:37;;;;;;;;;;;;;;;32.32;36.42;99726.34;5031626;28;919;-66
2023/08/18 08:07:04;;;;;;;;;;;;;;;32.47;35.27;99724.97;5031522;28;883;-68
2023/08/18 08:09:31;;;;;;;;;;;;;;;32.31;35.74;99712.63;5031318;28;881;-67
2023/08/18 08:11:58;;;;;;;;;;;;;;;32.31;35.67;99719.13;5031410;28;856;-67
2023/08/18 08:14:27;;;;;;;;;;;;;;;31.84;36.36;99708.50;5031348;28;1972;-69
2023/08/18 08:16:54;;;;;;;;;;;;;;;31.39;37.16;99697.25;5032586;28;813;-67
2023/08/18 08:19:21;;;;;;;;;;;;;;;31.11;38.54;99696.53;5035280;28;817;-66
2023/08/18 08:21:48;;;;;;;;;;;;;;;31.08;38.99;99694.00;5035020;28;891;-66
2023/08/18 08:24:15;;;;;;;;;;;;;;;31.11;39.65;99687.97;5035203;28;864;-66
2023/08/18 08:26:42;;;;;;;;;;;;;;;31.18;39.76;99675.09;5035057;28;891;-67
2023/08/18 08:29:09;;;;;;;;;;;;;;;31.89;38.73;99679.03;5035022;28;884;-68
2023/08/18 08:31:36;;;;;;;;;;;;;;;32.26;37.58;99682.06;5034964;28;919;-67
2023/08/18 08:34:03;;;;;;;;;;;;;;;32.30;37.53;99676.78;5035075;28;1894;-67
2023/08/18 08:36:32;;;;;;;;;;;;;;;33.23;36.29;99672.53;5034836;28;808;-68
2023/08/18 08:39:00;;;;;;;;;;;;;;;34.48;33.83;99678.78;5015305;28;1428;-66
2023/08/18 08:41:27;;;;;;;;;;;;;;;35.09;32.97;99678.72;5034906;28;832;-67
2023/08/18 08:43:53;;;;;;;;;;;;;;;34.71;32.64;99659.47;5034982;28;920;-67
2023/08/18 08:46:21;;;;;;;;;;;;;;;35.02;32.43;99658.66;5034622;28;808;-69
2023/08/18 08:48:48;;;;;;;;;;;;;;;35.54;31.55;99642.56;5034644;28;832;-67
2023/08/18 08:51:15;;;;;;;;;;;;;;;35.76;31.27;99657.41;5016769;28;910;-69
2023/08/18 08:53:46;;;;;;;;;;;;;;;35.69;30.91;99643.84;5034693;28;1890;-72
2023/08/18 08:56:13;;;;;;;;;;;;;;;35.94;30.75;99659.03;5034214;28;1269;-67
2023/08/18 08:58:41;;;;;;;;;;;;;;;35.91;30.30;99654.47;5034459;28;809;-67
2023/08/18 09:01:08;;;;;;;;;;;;;;;35.76;31.26;99637.28;5034448;28;907;-67
2023/08/18 09:03:36;;;;;;;;;;;;;;;35.31;31.17;99639.78;5034246;28;863;-67
2023/08/18 09:06:03;;;;;;;;;;;;;;;35.88;30.51;99634.72;5016740;28;1507;-66
2023/08/18 09:08:29;;;;;;;;;;;;;;;35.87;30.33;99630.31;5016493;28;1262;-65
2023/08/18 09:10:56;;;;;;;;;;;;;;;36.17;29.27;99633.00;5034292;28;828;-66
2023/08/18 09:13:23;;;;;;;;;;;;;;;36.59;29.13;99617.09;5034100;28;1028;-68
2023/08/18 09:15:50;;;;;;;;;;;;;;;37.01;27.96;99618.41;5034182;28;1969;-66
2023/08/18 09:18:17;;;;;;;;;;;;;;;37.43;27.94;99624.03;5034091;28;822;-67
2023/08/18 09:20:45;;;;;;;;;;;;;;;38.02;27.34;99619.34;5034026;28;891;-68
2023/08/18 09:26:29;;;;;;;;;;;;;;;37.20;27.40;99612.81;5033308;28;765;-65
2023/08/18 09:28:56;;;;;;;;;;;;;;;36.66;27.29;99604.78;5033760;28;879;-67
2023/08/18 09:31:23;;;;;;;;;;;;;;;36.31;27.51;99615.44;5033938;28;915;-70
2023/08/18 09:33:52;;;;;;;;;;;;;;;36.02;27.52;99607.22;5033761;28;1952;-70
2023/08/18 09:36:19;;;;;;;;;;;;;;;36.33;28.29;99630.75;5033788;28;875;-69
2023/08/18 09:38:46;;;;;;;;;;;;;;;36.69;26.79;99648.88;5015894;28;2221;-66
2023/08/18 09:41:13;;;;;;;;;;;;;;;36.23;27.06;99638.50;5033938;28;832;-70
2023/08/18 09:43:41;;;;;;;;;;;;;;;36.41;26.16;99642.22;5033995;28;1010;-69
2023/08/18 09:46:12;;;;;;;;;;;;;;;36.83;25.51;99635.69;5033542;28;828;-66
2023/08/18 09:48:39;;;;;;;;;;;;;;;36.68;24.38;99667.50;5033636;28;892;-68
2023/08/18 09:51:09;;;;;;;;;;;;;;;36.53;24.49;99656.88;5033362;28;912;-67
2023/08/18 09:53:39;;;;;;;;;;;;;;;35.84;24.20;99660.25;5033420;28;1886;-68
2023/08/18 09:56:16;;;;;;;;;;;;;;;35.03;24.95;99654.44;5033160;28;1202;-69
2023/08/18 09:58:49;;;;;;;;;;;;;;;34.93;25.68;99663.66;5033323;28;899;-70
2023/08/18 10:01:17;;;;;;;;;;;;;;;35.14;24.79;99654.81;5033584;28;852;-67
2023/08/18 10:44:06;;;;;;;;;;;;;;;34.75;24.72;99659.09;5056454;22;1853;-65
2023/08/18 10:46:36;;;;;;;;;;;;;;;35.48;23.51;99664.25;5052410;28;874;-65
2023/08/18 10:49:03;;;;;;;;;;;;;;;35.99;22.68;99652.28;5052384;28;855;-68
2023/08/18 10:51:30;;;;;;;;;;;;;;;35.79;22.34;99641.88;5052610;28;867;-67
2023/08/18 11:06:08;;;;;;;;;;;;;;;35.13;23.08;99647.53;5032306;28;749;-66
2023/08/18 11:08:34;;;;;;;;;;;;;;;35.33;23.47;99636.34;5032240;28;918;-65
2023/08/18 11:11:02;;;;;;;;;;;;;;;35.57;23.91;99641.41;5032033;28;955;-65
2023/08/18 11:13:31;;;;;;;;;;;;;;;35.53;23.70;99643.16;5032079;28;815;-66
2023/08/18 11:15:58;;;;;;;;;;;;;;;35.51;22.87;99648.72;5032188;28;1957;-69
2023/08/18 11:18:25;;;;;;;;;;;;;;;34.81;23.57;99645.31;5032224;28;909;-66
2023/08/18 11:20:51;;;;;;;;;;;;;;;34.55;24.28;99646.47;5032284;28;1237;-67
2023/08/18 11:23:19;;;;;;;;;;;;;;;35.01;24.33;99640.66;5032414;28;788;-68
2023/08/18 11:25:45;;;;;;;;;;;;;;;35.76;24.00;99626.56;5032187;28;1305;-65
2023/08/18 11:28:15;;;;;;;;;;;;;;;36.18;23.11;99628.78;5032079;28;1257;-64
2023/08/18 11:30:42;;;;;;;;;;;;;;;36.69;23.47;99635.25;5032088;28;885;-65
2023/08/18 11:33:10;;;;;;;;;;;;;;;37.13;22.14;99639.63;5031810;28;899;-68
2023/08/18 11:35:38;;;;;;;;;;;;;;;37.21;21.55;99627.97;5031761;28;1890;-64
2023/08/18 11:38:07;;;;;;;;;;;;;;;37.26;21.54;99641.38;5031789;28;839;-68
2023/08/18 11:40:36;;;;;;;;;;;;;;;37.49;22.53;99643.94;5031802;28;898;-66
2023/08/18 11:43:08;;;;;;;;;;;;;;;37.22;21.54;99646.81;5031647;28;1229;-67
2023/08/18 11:45:35;;;;;;;;;;;;;;;37.17;20.94;99646.47;5031664;28;855;-69
2023/08/18 11:48:05;;;;;;;;;;;;;;;37.26;22.20;99658.66;5031777;28;882;-65
2023/08/18 11:50:42;;;;;;;;;;;;;;;37.81;22.22;99654.47;5031974;28;799;-67
2023/08/18 11:53:09;;;;;;;;;;;;;;;37.58;22.82;99654.81;5035070;28;981;-65
2023/08/18 11:55:44;;;;;;;;;;;;;;;37.33;23.28;99670.06;5035576;28;1910;-68
2023/08/18 11:58:14;;;;;;;;;;;;;;;37.21;23.79;99657.53;5035685;28;863;-65
2023/08/18 12:00:41;;;;;;;;;;;;;;;37.46;22.64;99659.56;5035572;28;901;-66
2023/08/18 12:15:20;;;;;;;;;;;;;;;37.90;23.97;99665.31;5041646;28;1889;-65
2023/08/18 12:20:58;;;;;;;;;;;;;;;38.72;22.97;99679.59;5035172;28;684;-67
2023/08/18 12:23:25;;;;;;;;;;;;;;;39.05;22.80;99673.44;5035226;28;950;-66
2023/08/18 12:25:52;;;;;;;;;;;;;;;39.09;22.66;99680.28;5035144;28;890;-67
2023/08/18 12:28:18;;;;;;;;;;;;;;;38.92;22.26;99683.28;5035138;28;855;-65
2023/08/18 12:30:45;;;;;;;;;;;;;;;38.24;22.78;99683.84;5035001;28;878;-69
2023/08/18 12:33:12;;;;;;;;;;;;;;;37.68;24.16;99667.13;5035032;28;851;-69
2023/08/18 12:35:39;;;;;;;;;;;;;;;37.84;23.87;99669.84;5034932;28;1957;-71
2023/08/18 12:38:05;;;;;;;;;;;;;;;38.27;23.75;99676.88;5034906;28;890;-65
2023/08/18 12:53:22;;;;;;;;;;;;;;;39.59;23.98;99676.75;5054619;28;839;-65
2023/08/18 12:55:48;;;;;;;;;;;;;;;39.44;23.99;99670.56;5054467;28;1969;-68
2023/08/18 12:58:15;;;;;;;;;;;;;;;38.74;24.55;99668.22;5053239;28;819;-66
2023/08/18 13:00:41;;;;;;;;;;;;;;;38.52;25.94;99667.25;5054655;28;903;-66
2023/08/18 13:03:07;;;;;;;;;;;;;;;39.20;25.66;99668.13;5053888;28;882;-65
2023/08/18 13:05:34;;;;;;;;;;;;;;;38.93;25.19;99674.00;5054293;28;873;-65
2023/08/18 13:08:01;;;;;;;;;;;;;;;38.09;26.31;99675.44;5054418;28;875;-66
2023/08/18 13:10:27;;;;;;;;;;;;;;;38.09;26.55;99672.53;5054130;28;839;-65
2023/08/18 13:12:53;;;;;;;;;;;;;;;38.50;26.37;99661.34;5052876;28;1316;-65
2023/08/18 13:15:21;;;;;;;;;;;;;;;38.39;26.06;99677.84;5054434;28;1886;-68
2023/08/18 13:17:47;;;;;;;;;;;;;;;38.18;26.56;99671.84;5054494;28;844;-65
2023/08/18 13:20:14;;;;;;;;;;;;;;;38.86;26.42;99660.47;5054122;28;890;-65
2023/08/18 13:22:40;;;;;;;;;;;;;;;38.99;25.67;99662.19;5054254;28;890;-69
2023/08/18 13:25:09;;;;;;;;;;;;;;;38.37;25.80;99669.00;5054390;28;835;-66
2023/08/18 13:27:36;;;;;;;;;;;;;;;38.42;26.45;99658.53;5054007;28;836;-66
2023/08/18 13:30:03;;;;;;;;;;;;;;;38.16;26.41;99660.13;5054197;28;915;-65
2023/08/18 13:32:29;;;;;;;;;;;;;;;37.58;27.58;99655.56;5053943;28;946;-66
2023/08/18 13:34:56;;;;;;;;;;;;;;;36.96;27.43;99669.16;5053850;28;1955;-66
2023/08/18 13:37:23;;;;;;;;;;;;;;;37.16;27.39;99656.44;5053964;28;828;-65
2023/08/18 13:39:50;;;;;;;;;;;;;;;37.66;27.83;99661.25;5053873;28;863;-64
2023/08/18 13:42:17;;;;;;;;;;;;;;;37.80;26.90;99662.38;5054017;28;895;-64
2023/08/18 13:44:43;;;;;;;;;;;;;;;37.83;26.53;99665.41;5052400;28;1215;-65
2023/08/18 13:47:10;;;;;;;;;;;;;;;37.31;27.25;99669.16;5053915;28;815;-70
2023/08/18 13:49:36;;;;;;;;;;;;;;;37.21;26.96;99674.06;5053886;28;858;-66
2023/08/18 14:05:06;;;;;;;;;;;;;;;36.42;28.40;99686.88;5053278;28;638;-66
2023/08/18 14:07:33;;;;;;;;;;;;;;;36.34;28.35;99695.59;5053183;28;890;-65
2023/08/18 14:10:00;;;;;;;;;;;;;;;36.52;28.25;99704.28;5051672;28;1395;-70
2023/08/18 14:12:27;;;;;;;;;;;;;;;35.65;29.31;99706.72;5053175;28;808;-67
2023/08/18 14:14:54;;;;;;;;;;;;;;;35.10;30.03;99708.97;5052043;28;1906;-65
2023/08/18 14:17:36;;;;;;;;;;;;;;;34.31;31.67;99713.75;5053111;28;807;-69
2023/08/18 14:20:10;;;;;;;;;;;;;;;33.20;32.96;99696.53;5052980;28;878;-65
2023/08/18 14:22:36;;;;;;;;;;;;;;;32.80;34.29;99696.84;5051710;28;1284;-64
2023/08/18 14:25:04;;;;;;;;;;;;;;;32.70;35.38;99685.16;5053057;28;890;-67
2023/08/18 14:27:30;;;;;;;;;;;;;;;32.84;34.95;99678.00;5052774;28;982;-65
2023/08/18 14:29:57;;;;;;;;;;;;;;;33.38;34.31;99663.22;5052825;28;838;-68
2023/08/18 14:44:35;;;;;;;;;;;;;;;32.52;34.96;99692.63;5052232;28;830;-65
2023/08/18 14:47:02;;;;;;;;;;;;;;;32.52;34.78;99721.97;5052509;28;938;-67
2023/08/18 14:49:29;;;;;;;;;;;;;;;32.48;34.63;99720.78;5052501;28;877;-65
2023/08/18 14:51:56;;;;;;;;;;;;;;;32.28;33.74;99705.91;5052705;28;851;-66
2023/08/18 14:54:22;;;;;;;;;;;;;;;31.99;34.08;99712.88;5052458;28;1996;-66
2023/08/18 14:56:49;;;;;;;;;;;;;;;31.74;34.82;99707.44;5052462;28;839;-65
2023/08/18 14:59:15;;;;;;;;;;;;;;;31.70;34.91;99713.47;5052375;28;1221;-65
2023/08/18 15:01:42;;;;;;;;;;;;;;;31.57;34.59;99721.31;5052298;28;906;-64
2023/08/18 15:04:08;;;;;;;;;;;;;;;31.38;34.86;99716.47;5052063;28;1236;-65
2023/08/18 15:06:36;;;;;;;;;;;;;;;31.10;35.14;99714.19;5052139;28;851;-68
2023/08/18 15:09:03;;;;;;;;;;;;;;;30.82;35.63;99704.03;5051949;28;1214;-64
2023/08/18 15:11:30;;;;;;;;;;;;;;;30.76;35.60;99714.78;5052137;28;796;-65
2023/08/18 15:13:57;;;;;;;;;;;;;;;30.57;35.80;99712.00;5051988;28;1903;-67
2023/08/18 15:16:24;;;;;;;;;;;;;;;30.48;36.08;99710.34;5051991;28;859;-65
2023/08/18 15:18:50;;;;;;;;;;;;;;;30.66;35.67;99705.91;5052421;28;799;-66
2023/08/18 15:21:16;;;;;;;;;;;;;;;30.99;35.22;99697.28;5051924;28;874;-65
2023/08/18 15:23:42;;;;;;;;;;;;;;;31.19;35.24;99704.41;5051788;28;923;-65
2023/08/18 15:26:09;;;;;;;;;;;;;;;31.36;34.94;99698.34;5051628;28;830;-65
2023/08/18 15:28:35;;;;;;;;;;;;;;;31.43;34.68;99700.56;5051755;28;879;-65
2023/08/18 15:31:02;;;;;;;;;;;;;;;31.62;34.18;99689.78;5050411;28;1172;-65
2023/08/18 15:33:29;;;;;;;;;;;;;;;31.73;34.05;99695.25;5051804;28;887;-65
2023/08/18 15:35:56;;;;;;;;;;;;;;;31.69;34.22;99694.06;5051616;28;1893;-66
2023/08/18 15:38:22;;;;;;;;;;;;;;;31.43;34.52;99686.28;5051655;28;886;-65